createdAt,value
2019-03-25T00:00:39.680Z,9.77
2019-03-25T00:02:47.575Z,8.80
2019-03-25T00:04:54.979Z,8.73
2019-03-25T00:07:01.751Z,11.73
2019-03-25T00:09:09.537Z,10.97
2019-03-25T00:11:16.325Z,10.13
2019-03-25T00:13:22.983Z,9.60
2019-03-25T00:15:29.649Z,11.23
2019-03-25T00:17:36.522Z,10.67
2019-03-25T00:19:42.996Z,10.97
2019-03-25T00:21:50.282Z,10.60
2019-03-25T00:23:57.775Z,10.30
2019-03-25T00:26:04.720Z,10.73
2019-03-25T00:28:13.690Z,10.93
2019-03-25T00:30:19.734Z,9.70
2019-03-25T00:32:26.385Z,10.33
2019-03-25T00:34:32.753Z,10.87
2019-03-25T00:36:39.421Z,10.87
2019-03-25T00:38:48.160Z,10.43
2019-03-25T00:40:54.523Z,9.17
2019-03-25T00:43:03.323Z,8.47
2019-03-25T00:45:10.693Z,9.20
2019-03-25T00:47:17.680Z,9.77
2019-03-25T00:49:24.242Z,10.87
2019-03-25T00:51:30.600Z,10.53
2019-03-25T00:53:37.106Z,11.83
2019-03-25T00:55:44.674Z,11.23
2019-03-25T00:57:51.141Z,10.17
2019-03-25T00:59:57.806Z,10.13
2019-03-25T01:02:04.168Z,11.60
2019-03-25T01:04:10.967Z,11.70
2019-03-25T01:06:18.816Z,12.03
2019-03-25T01:08:25.811Z,11.60
2019-03-25T01:10:32.803Z,11.87
2019-03-25T01:12:39.468Z,11.57
2019-03-25T01:14:46.559Z,12.43
2019-03-25T01:16:53.325Z,11.30
2019-03-25T01:18:59.906Z,11.73
2019-03-25T01:21:06.799Z,10.90
2019-03-25T01:23:13.016Z,12.83
2019-03-25T01:25:21.125Z,11.13
2019-03-25T01:27:27.379Z,11.53
2019-03-25T01:29:34.134Z,10.63
2019-03-25T01:31:40.725Z,10.13
2019-03-25T01:33:47.278Z,9.93
2019-03-25T01:35:53.852Z,9.17
2019-03-25T01:38:00.333Z,10.60
2019-03-25T01:40:08.817Z,10.53
2019-03-25T01:42:16.210Z,11.73
2019-03-25T01:44:22.482Z,11.53
2019-03-25T01:46:28.932Z,11.63
2019-03-25T01:48:35.318Z,12.37
2019-03-25T01:50:42.089Z,11.63
2019-03-25T01:52:48.641Z,11.10
2019-03-25T01:54:55.132Z,11.17
2019-03-25T01:57:01.666Z,10.60
2019-03-25T01:59:08.023Z,10.37
2019-03-25T02:01:14.614Z,9.60
2019-03-25T02:03:22.713Z,8.77
2019-03-25T02:05:29.078Z,9.90
2019-03-25T02:07:36.050Z,9.07
2019-03-25T02:09:42.404Z,8.27
2019-03-25T02:11:49.191Z,7.80
2019-03-25T02:13:56.061Z,7.03
2019-03-25T02:16:02.301Z,8.07
2019-03-25T02:18:08.894Z,7.57
2019-03-25T02:20:25.822Z,7.00
2019-03-25T02:22:23.256Z,6.93
2019-03-25T02:24:30.558Z,8.23
2019-03-25T02:26:37.250Z,8.60
2019-03-25T02:28:43.698Z,8.30
2019-03-25T02:30:50.848Z,8.57
2019-03-25T02:32:57.309Z,8.67
2019-03-25T02:35:03.875Z,8.00
2019-03-25T02:37:10.137Z,8.17
2019-03-25T02:39:18.567Z,7.70
2019-03-25T02:41:24.940Z,8.37
2019-03-25T02:43:33.230Z,6.80
2019-03-25T02:45:41.727Z,8.73
2019-03-25T02:47:52.226Z,9.30
2019-03-25T02:49:59.183Z,8.80
2019-03-25T02:52:05.623Z,8.43
2019-03-25T02:54:12.321Z,9.97
2019-03-25T02:56:19.887Z,7.50
2019-03-25T02:58:26.377Z,9.13
2019-03-25T03:00:38.494Z,7.33
2019-03-25T03:02:44.916Z,7.83
2019-03-25T03:04:51.377Z,7.77
2019-03-25T03:06:57.857Z,8.17
2019-03-25T03:09:06.362Z,7.90
2019-03-25T03:11:12.824Z,7.90
2019-03-25T03:13:19.713Z,7.50
2019-03-25T03:15:26.504Z,6.47
2019-03-25T03:17:33.261Z,6.93
2019-03-25T03:19:39.912Z,6.63
2019-03-25T03:21:46.295Z,7.77
2019-03-25T03:23:52.647Z,7.03
2019-03-25T03:25:59.006Z,8.00
2019-03-25T03:28:05.766Z,7.40
2019-03-25T03:30:12.808Z,8.13
2019-03-25T03:32:19.523Z,7.53
2019-03-25T03:34:26.033Z,8.57
2019-03-25T03:36:32.665Z,7.60
2019-03-25T03:38:42.106Z,7.30
2019-03-25T03:40:48.678Z,7.33
2019-03-25T03:42:55.412Z,7.07
2019-03-25T03:45:01.808Z,7.40
2019-03-25T03:47:08.977Z,6.40
2019-03-25T03:49:15.536Z,7.00
2019-03-25T03:51:22.628Z,7.20
2019-03-25T03:53:29.294Z,6.90
2019-03-25T03:55:39.648Z,7.13
2019-03-25T03:57:47.606Z,8.53
2019-03-25T03:59:54.428Z,7.57
2019-03-25T04:02:01.921Z,7.67
2019-03-25T04:04:08.480Z,8.43
2019-03-25T04:06:15.656Z,8.70
2019-03-25T04:08:21.929Z,8.00
2019-03-25T04:10:28.705Z,8.20
2019-03-25T04:12:34.953Z,9.27
2019-03-25T04:14:41.323Z,9.10
2019-03-25T04:16:48.714Z,9.97
2019-03-25T04:18:55.380Z,8.83
2019-03-25T04:21:03.174Z,9.03
2019-03-25T04:23:09.438Z,8.67
2019-03-25T04:25:16.012Z,8.30
2019-03-25T04:27:23.802Z,9.40
2019-03-25T04:29:30.473Z,8.23
2019-03-25T04:31:37.228Z,8.60
2019-03-25T04:33:44.307Z,8.77
2019-03-25T04:35:51.811Z,8.97
2019-03-25T04:37:58.381Z,8.57
2019-03-25T04:40:10.007Z,9.20
2019-03-25T04:42:16.526Z,8.67
2019-03-25T04:44:22.901Z,8.67
2019-03-25T04:46:29.679Z,8.13
2019-03-25T04:48:36.223Z,8.17
2019-03-25T04:50:42.998Z,7.60
2019-03-25T04:52:50.088Z,7.63
2019-03-25T04:54:57.371Z,8.03
2019-03-25T04:57:03.944Z,7.70
2019-03-25T04:59:10.903Z,7.43
2019-03-25T05:01:17.471Z,8.20
2019-03-25T05:03:24.470Z,7.43
2019-03-25T05:05:30.721Z,7.40
2019-03-25T05:07:39.018Z,6.83
2019-03-25T05:09:45.667Z,7.80
2019-03-25T05:11:52.883Z,7.80
2019-03-25T05:14:00.047Z,8.10
2019-03-25T05:16:06.633Z,8.30
2019-03-25T05:18:13.095Z,7.90
2019-03-25T05:20:19.451Z,8.57
2019-03-25T05:22:28.370Z,7.50
2019-03-25T05:24:36.657Z,8.70
2019-03-25T05:26:51.007Z,8.90
2019-03-25T05:28:51.152Z,8.30
2019-03-25T05:30:57.615Z,9.27
2019-03-25T05:33:03.893Z,8.27
2019-03-25T05:35:12.062Z,7.93
2019-03-25T05:37:18.337Z,7.17
2019-03-25T05:39:24.793Z,8.20
2019-03-25T05:41:31.373Z,8.17
2019-03-25T05:43:37.954Z,9.03
2019-03-25T05:45:44.605Z,7.63
2019-03-25T05:47:50.985Z,9.00
2019-03-25T05:49:57.906Z,9.83
2019-03-25T05:52:04.193Z,9.20
2019-03-25T05:54:12.084Z,10.10
2019-03-25T05:56:18.660Z,9.73
2019-03-25T05:58:24.939Z,11.17
2019-03-25T06:00:33.155Z,9.97
2019-03-25T06:02:39.498Z,9.07
2019-03-25T06:04:46.077Z,9.10
2019-03-25T06:06:52.437Z,9.73
2019-03-25T06:08:58.898Z,10.37
2019-03-25T06:11:05.142Z,8.67
2019-03-25T06:13:11.537Z,9.20
2019-03-25T06:15:18.625Z,10.70
2019-03-25T06:17:26.807Z,10.53
2019-03-25T06:19:33.179Z,14.47
2019-03-25T06:21:39.748Z,12.63
2019-03-25T06:23:46.307Z,9.60
2019-03-25T06:25:52.774Z,11.10
2019-03-25T06:27:59.137Z,12.17
2019-03-25T06:30:11.738Z,12.70
2019-03-25T06:32:18.318Z,12.83
2019-03-25T06:34:25.448Z,11.93
2019-03-25T06:36:31.837Z,13.40
2019-03-25T06:38:38.419Z,12.60
2019-03-25T06:40:45.083Z,11.57
2019-03-25T06:42:51.658Z,12.63
2019-03-25T06:44:59.668Z,10.60
2019-03-25T06:47:08.057Z,21.33
2019-03-25T06:49:14.837Z,22.17
2019-03-25T06:51:21.218Z,29.40
2019-03-25T06:53:27.777Z,14.40
2019-03-25T06:55:34.037Z,12.73
2019-03-25T06:57:43.205Z,17.47
2019-03-25T06:59:51.467Z,12.67
2019-03-25T07:01:58.045Z,10.10
2019-03-25T07:04:04.817Z,12.40
2019-03-25T07:06:11.472Z,10.43
2019-03-25T07:08:18.066Z,11.63
2019-03-25T07:10:36.509Z,9.83
2019-03-25T07:12:44.296Z,17.63
2019-03-25T07:14:51.068Z,14.30
2019-03-25T07:16:57.316Z,9.40
2019-03-25T07:19:04.006Z,6.90
2019-03-25T07:21:10.461Z,7.30
2019-03-25T07:23:16.937Z,6.70
2019-03-25T07:25:23.480Z,7.23
2019-03-25T07:27:36.737Z,6.83
2019-03-25T07:29:38.050Z,8.33
2019-03-25T07:31:45.231Z,7.80
2019-03-25T07:33:51.493Z,8.33
2019-03-25T07:35:58.580Z,6.93
2019-03-25T07:38:04.872Z,7.83
2019-03-25T07:40:13.361Z,7.53
2019-03-25T07:42:21.450Z,5.43
2019-03-25T07:44:27.821Z,7.10
2019-03-25T07:46:35.001Z,5.87
2019-03-25T07:48:41.370Z,5.33
2019-03-25T07:50:47.921Z,4.70
2019-03-25T07:52:54.710Z,4.57
2019-03-25T07:55:01.081Z,5.77
2019-03-25T07:57:07.538Z,7.27
2019-03-25T07:59:13.913Z,7.00
2019-03-25T08:01:20.344Z,6.03
2019-03-25T08:03:27.542Z,4.23
2019-03-25T08:05:35.530Z,6.40
2019-03-25T08:07:41.820Z,5.63
2019-03-25T08:09:48.180Z,5.40
2019-03-25T08:11:55.144Z,4.57
2019-03-25T08:14:06.556Z,3.60
2019-03-25T08:16:12.813Z,5.67
2019-03-25T08:18:19.341Z,4.97
2019-03-25T08:20:25.716Z,4.97
2019-03-25T08:22:32.263Z,4.87
2019-03-25T08:24:38.964Z,4.97
2019-03-25T08:26:45.627Z,5.57
2019-03-25T08:28:52.077Z,4.83
2019-03-25T08:30:58.458Z,4.80
2019-03-25T08:33:04.903Z,4.67
2019-03-25T08:35:12.308Z,4.70
2019-03-25T08:37:18.662Z,5.80
2019-03-25T08:39:24.955Z,4.73
2019-03-25T08:41:31.283Z,5.70
2019-03-25T08:43:37.759Z,5.10
2019-03-25T08:45:44.194Z,4.67
2019-03-25T08:47:51.712Z,5.40
2019-03-25T08:49:58.283Z,4.73
2019-03-25T08:52:04.945Z,3.57
2019-03-25T08:54:11.408Z,4.13
2019-03-25T08:56:17.863Z,4.83
2019-03-25T08:58:24.131Z,5.27
2019-03-25T09:00:30.804Z,3.07
2019-03-25T09:02:37.181Z,3.00
2019-03-25T09:04:44.012Z,3.00
2019-03-25T09:06:50.501Z,3.80
2019-03-25T09:08:56.971Z,3.67
2019-03-25T09:11:03.541Z,3.70
2019-03-25T09:13:09.778Z,3.77
2019-03-25T09:15:17.188Z,4.57
2019-03-25T09:17:23.948Z,3.63
2019-03-25T09:19:31.318Z,3.03
2019-03-25T09:21:37.791Z,4.53
2019-03-25T09:23:44.054Z,3.50
2019-03-25T09:25:52.385Z,3.67
2019-03-25T09:28:00.396Z,4.33
2019-03-25T09:30:09.599Z,3.33
2019-03-25T09:32:15.968Z,2.80
2019-03-25T09:34:22.739Z,3.83
2019-03-25T09:36:29.958Z,4.00
2019-03-25T09:38:36.473Z,6.30
2019-03-25T09:40:43.070Z,5.47
2019-03-25T09:42:49.620Z,3.60
2019-03-25T09:44:56.417Z,3.07
2019-03-25T09:47:02.753Z,3.07
2019-03-25T09:49:09.109Z,3.57
2019-03-25T09:51:16.721Z,3.00
2019-03-25T09:53:23.078Z,4.23
2019-03-25T09:55:29.644Z,4.50
2019-03-25T09:57:36.095Z,3.63
2019-03-25T09:59:42.685Z,5.63
2019-03-25T10:01:50.487Z,6.17
2019-03-25T10:03:57.752Z,4.87
2019-03-25T10:06:04.012Z,5.73
2019-03-25T10:08:10.715Z,5.43
2019-03-25T10:10:17.145Z,5.00
2019-03-25T10:12:23.919Z,23.97
2019-03-25T10:14:30.273Z,8.27
2019-03-25T10:16:36.750Z,6.43
2019-03-25T10:18:43.310Z,4.20
2019-03-25T10:20:49.971Z,4.67
2019-03-25T10:22:57.897Z,4.47
2019-03-25T10:25:05.430Z,4.30
2019-03-25T10:27:11.730Z,3.90
2019-03-25T10:29:18.499Z,3.97
2019-03-25T18:28:25.904Z,13.63
2019-03-25T18:30:36.001Z,14.33
2019-03-25T18:32:45.751Z,12.93
2019-03-25T18:34:53.021Z,14.83
2019-03-25T18:37:02.195Z,14.27
2019-03-25T18:39:12.170Z,12.50
2019-03-25T18:41:25.645Z,13.50
2019-03-25T18:43:45.244Z,15.07
2019-03-25T18:46:00.164Z,11.37
2019-03-25T18:48:14.133Z,13.00
2019-03-25T18:50:26.116Z,12.77
2019-03-25T18:52:37.567Z,13.00
2019-03-25T18:54:49.175Z,11.27
2019-03-25T18:57:01.366Z,11.20
2019-03-25T18:59:10.558Z,12.23
2019-03-25T19:01:18.209Z,11.43
2019-03-25T19:03:26.342Z,11.13
2019-03-25T19:05:34.969Z,11.57
2019-03-25T19:07:45.667Z,11.17
2019-03-25T19:09:55.508Z,11.10
2019-03-25T19:12:02.956Z,11.97
2019-03-25T19:14:09.791Z,11.87
2019-03-25T19:16:18.349Z,10.77
2019-03-25T19:18:25.152Z,12.57
2019-03-25T19:20:34.499Z,11.03
2019-03-25T19:22:41.533Z,10.53
2019-03-25T19:24:50.261Z,10.43
2019-03-25T19:26:57.219Z,10.90
2019-03-25T19:29:04.548Z,10.70
2019-03-25T19:31:12.999Z,9.93
2019-03-25T19:33:20.342Z,9.80
2019-03-25T19:35:30.073Z,10.23
2019-03-25T19:37:38.651Z,9.53
2019-03-25T19:40:06.256Z,9.00
2019-03-25T19:42:13.937Z,9.23
2019-03-25T19:44:20.984Z,10.63
2019-03-25T19:46:32.053Z,10.00
2019-03-25T19:48:39.659Z,10.40
2019-03-25T19:50:46.498Z,9.90
2019-03-25T19:52:54.710Z,9.40
2019-03-25T19:55:02.094Z,9.87
2019-03-25T19:57:09.089Z,10.30
2019-03-25T19:59:16.790Z,9.60
2019-03-25T20:01:24.267Z,8.90
2019-03-25T20:03:32.936Z,9.10
2019-03-25T20:05:41.857Z,9.80
2019-03-25T20:07:48.566Z,9.10
2019-03-25T20:09:56.288Z,7.03
2019-03-25T20:12:03.252Z,8.10
2019-03-25T20:14:13.179Z,7.77
2019-03-25T20:16:20.469Z,8.70
2019-03-25T20:18:30.285Z,8.63
2019-03-25T20:20:38.658Z,8.90
2019-03-25T20:22:46.510Z,7.10
2019-03-25T20:24:53.803Z,8.03
2019-03-25T20:27:01.349Z,8.73
2019-03-25T20:29:09.349Z,8.77
2019-03-25T20:31:16.597Z,8.70
2019-03-25T20:33:23.382Z,9.90
2019-03-25T20:35:32.261Z,8.87
2019-03-25T20:37:40.910Z,8.43
2019-03-25T20:39:48.045Z,10.53
2019-03-25T20:41:59.241Z,8.00
2019-03-25T20:44:09.992Z,9.73
2019-03-25T20:46:21.867Z,9.10
2019-03-25T20:48:30.941Z,9.60
2019-03-25T20:50:39.449Z,9.70
2019-03-25T20:52:49.855Z,9.00
2019-03-25T20:55:05.654Z,9.20
2019-03-25T20:57:16.930Z,9.90
2019-03-25T20:59:30.045Z,8.90
2019-03-25T21:01:41.368Z,8.70
2019-03-25T21:03:51.364Z,9.40
2019-03-25T21:06:04.039Z,9.10
2019-03-25T21:08:13.652Z,9.83
2019-03-25T21:10:21.443Z,10.23
2019-03-25T21:12:29.384Z,9.33
2019-03-25T21:14:37.225Z,10.73
2019-03-25T21:16:44.886Z,10.17
2019-03-25T21:19:00.263Z,10.20
2019-03-25T21:21:14.828Z,9.90
2019-03-25T21:23:34.347Z,9.90
2019-03-25T21:25:46.362Z,9.87
2019-03-25T21:28:00.000Z,10.37
2019-03-25T21:30:09.656Z,10.10
2019-03-25T21:32:17.246Z,9.97
2019-03-25T21:34:24.966Z,9.70
2019-03-25T21:36:34.471Z,10.63
2019-03-25T21:38:43.256Z,10.40
2019-03-25T21:40:50.996Z,11.10
2019-03-25T21:42:58.778Z,10.27
2019-03-25T21:45:09.826Z,10.63
2019-03-25T21:47:18.398Z,9.70
2019-03-25T21:49:26.195Z,9.23
2019-03-25T21:51:33.776Z,8.77
2019-03-25T21:53:40.541Z,9.27
2019-03-25T21:55:47.340Z,9.33
2019-03-25T21:57:55.774Z,7.77
2019-03-25T22:00:04.222Z,9.03
2019-03-25T22:02:15.603Z,10.27
2019-03-25T22:04:23.209Z,9.27
2019-03-25T22:06:29.969Z,9.13
2019-03-25T22:08:37.130Z,8.87
2019-03-25T22:10:44.567Z,10.53
2019-03-25T22:12:53.192Z,8.90
2019-03-25T22:15:00.349Z,9.13
2019-03-25T22:17:07.900Z,10.30
2019-03-25T22:19:19.667Z,10.50
2019-03-25T22:21:26.736Z,10.70
2019-03-25T22:23:37.077Z,11.10
2019-03-25T22:25:43.852Z,10.33
2019-03-25T22:27:51.887Z,10.47
2019-03-25T22:29:59.561Z,11.07
2019-03-25T22:32:06.530Z,11.73
2019-03-25T22:34:13.800Z,12.43
2019-03-25T22:36:20.607Z,12.97
2019-03-25T22:38:27.189Z,12.00
2019-03-25T22:40:34.263Z,11.57
2019-03-25T22:42:41.651Z,12.57
2019-03-25T22:44:48.798Z,11.77
2019-03-25T22:46:55.500Z,12.83
2019-03-25T22:49:02.638Z,13.60
2019-03-25T22:51:09.724Z,11.83
2019-03-25T22:53:16.245Z,12.60
2019-03-25T22:55:23.489Z,10.67
2019-03-25T22:57:30.412Z,12.30
2019-03-25T22:59:36.787Z,11.83
2019-03-25T23:01:43.556Z,11.57
2019-03-25T23:03:49.915Z,10.70
2019-03-25T23:05:56.476Z,12.40
2019-03-25T23:08:03.263Z,10.50
2019-03-25T23:10:10.953Z,10.83
2019-03-25T23:12:17.612Z,10.33
2019-03-25T23:14:23.994Z,10.03
2019-03-25T23:16:31.677Z,11.70
2019-03-25T23:18:37.909Z,10.53
2019-03-25T23:20:44.657Z,10.17
2019-03-25T23:22:51.367Z,9.23
2019-03-25T23:24:57.896Z,9.93
2019-03-25T23:27:04.718Z,10.53
2019-03-25T23:29:11.610Z,10.30
2019-03-25T23:31:18.267Z,10.33
2019-03-25T23:33:25.022Z,11.10
2019-03-25T23:35:31.387Z,10.03
2019-03-25T23:37:37.858Z,10.47
2019-03-25T23:39:44.330Z,11.57
2019-03-25T23:41:52.213Z,9.60
2019-03-25T23:43:59.093Z,11.10
2019-03-25T23:46:05.864Z,10.13
2019-03-25T23:48:12.959Z,10.50
2019-03-25T23:50:19.512Z,10.67
2019-03-25T23:52:25.890Z,9.73
2019-03-25T23:54:33.155Z,10.03
2019-03-25T23:56:39.727Z,10.63
2019-03-25T23:58:46.110Z,12.00
